Terminal Aerodrome Forecast
Issued by NWS

Home | Current Version | Previous Version | Text Only | Print | Product List | Glossary On
Versions: 1 2 3 4 5 6 7 8 9 10 11 12 13 14 15 16
000
FTUS46 KMFR 221733
TAFLMT
TAF
KLMT 221733Z 2218/2318 30011KT P6SM BKN035
     FM222100 31008KT P6SM BKN050
     FM230300 30003KT P6SM SCT020=

USA.gov is the U.S. government's official web portal to all federal, state and local government web resources and services.